Airfield :
LOGIN :

Register | Disclaimer

   EN    FR    IT 

 










Legend :    VFR   Marginal VFR   IFR   Intensive IFR   Very Intensive IFR
Visi :
Ceiling :
>= 8 km
>= 3000ft
5 to 8 km
1000 to 3000 ft
1500m to 5 km
500 to 1000 ft
800 to 1500m
200 to 500 ft
< 800m
< 200 ft
Symbols :   Thunderstorms  Fog  Heavy snow  Heavy precipitations  Wind > 20 kt
SIGMETs :     Misc.  Thunderstorms  Icing  Turbulence  Mountain Waves  Volcanic Ashes






- Airport Elevation : 390 ft
- IATA code : NQY


EGHQ - Newquay

CURRENT METAR :
  • 191450Z 17013KT 9000 -DZ BKN015 10/08 Q1010

EXPIRED METARs :
  • 191420Z 17015KT 9000 -DZ BKN020 10/08 Q1010
  • 191350Z 17014KT 9999 -RA SCT017 BKN030 11/08 Q1010
  • 191320Z 17014KT 9999 -RA BKN017 BKN032 10/08 Q1011
  • 191250Z 18015KT 9999 SCT020 11/07 Q1011

TAF TAF EGHQ
Valid from the 19 at 15:00 until the 19 at 22:00 UTC


191403Z 1915/1922 16012KT 9999 SCT020
PROB30
TEMPO 1915/1922 17015G25KT 7000 RA BKN009



MET'MAP, your aeronautical weather chart ! - Copyright ORBIFLY December 2007 - Disclaimer

ORBIFLY MET'MAP TEAM :

Programming & Development : Alexandra Zaïnal
Concept & Development : Baudouin d'Aumeries
Co-Development & Prog : Marc-Olivier Méhu
Technical & hardware support : Manuel Goepfert

Contact : metmap@orbifly.com




SOURCES & CREDITS :

   NOAA